Terminal Aerodrome Forecast
Issued by NWS Missoula, MT

Home | Current Version | Previous Version | Text Only | Print | Product List | Glossary On
Versions: 1 2 3 4 5 6 7 8 9 10 11 12 13 14 15 16 17 18 19 20 21 22 23 24 25
849
FTUS45 KMSO 121133
TAFMSO
TAF
KMSO 121133Z 1212/1312 00000KT 1SM -RA BR BKN040 OVC070
      TEMPO 1212/1214 1/2SM FG
     FM121400 00000KT 5SM BR BKN040 OVC070
     FM121600 VRB03KT P6SM VCSH BKN050 OVC100
     FM130900 28005KT 6SM -RA BR OVC035=

USA.gov is the U.S. government's official web portal to all federal, state and local government web resources and services.